Time;durP1;ratioP1;P1;durP2;ratioP2;P2;SDS_P1;SDS_P2;PMS_P1;PMS_P2;Temp;Humidity;BMP_temperature;BMP_pressure;BME280_temperature;BME280_humidity;BME280_pressure;Samples;Min_cycle;Max_cycle;Signal;HPM_P1;HPM_P2
2022/02/02 00:01:17;;;;;;;5.80;5.10;;;5.70;99.90;;;;;;5056057;28;20221;-79
2022/02/02 00:03:50;;;;;;;6.63;5.05;;;5.70;99.90;;;;;;5055599;28;20626;-79
2022/02/02 00:06:21;;;;;;;5.43;4.18;;;5.70;99.90;;;;;;5054714;28;20198;-78
2022/02/02 00:09:00;;;;;;;4.53;4.10;;;5.70;99.90;;;;;;5055933;28;20194;-79
2022/02/02 00:14:30;;;;;;;5.93;4.13;;;5.70;99.90;;;;;;5054009;28;20278;-78
2022/02/02 00:17:02;;;;;;;6.60;4.55;;;5.70;99.90;;;;;;5061336;28;20206;-79
2022/02/02 00:19:40;;;;;;;5.68;4.55;;;5.60;99.90;;;;;;5054832;28;20221;-79
2022/02/02 00:22:12;;;;;;;8.52;4.10;;;5.60;99.90;;;;;;5057720;28;20647;-78
2022/02/02 00:24:56;;;;;;;6.55;4.80;;;5.60;99.90;;;;;;5057138;28;20213;-78
2022/02/02 00:27:24;;;;;;;9.32;4.95;;;5.60;99.90;;;;;;5055623;28;20221;-77
2022/02/02 00:29:55;;;;;;;9.32;5.90;;;5.60;99.90;;;;;;5057555;28;20238;-80
2022/02/02 00:32:35;;;;;;;7.97;5.40;;;5.60;99.90;;;;;;5062000;28;20230;-80
2022/02/02 00:35:02;;;;;;;8.30;5.72;;;5.70;99.90;;;;;;5064246;28;20240;-80
2022/02/02 00:37:29;;;;;;;7.07;5.18;;;5.60;99.90;;;;;;5062811;28;20273;-79
2022/02/02 00:39:58;;;;;;;7.93;6.00;;;5.70;99.90;;;;;;5063094;28;20218;-79
2022/02/02 00:42:29;;;;;;;10.75;6.53;;;5.80;99.90;;;;;;5063653;28;20234;-78
2022/02/02 00:44:56;;;;;;;6.28;4.93;;;5.80;99.90;;;;;;5064716;28;20650;-79
2022/02/02 00:47:25;;;;;;;12.13;5.90;;;5.90;99.90;;;;;;5059939;28;20206;-79
2022/02/02 00:49:53;;;;;;;8.25;5.85;;;5.90;99.90;;;;;;5061761;28;20206;-79
2022/02/02 00:52:21;;;;;;;10.40;5.40;;;5.90;99.90;;;;;;5063966;28;20253;-80
2022/02/02 00:54:48;;;;;;;5.97;4.88;;;5.90;99.90;;;;;;5063445;28;20210;-79
2022/02/02 00:57:16;;;;;;;6.50;5.70;;;6.00;99.90;;;;;;5058817;28;20313;-79
2022/02/02 00:59:43;;;;;;;10.00;5.78;;;5.90;99.90;;;;;;5062627;28;20268;-80
2022/02/02 01:02:12;;;;;;;6.97;5.75;;;5.90;99.90;;;;;;5064468;28;20301;-80
2022/02/02 01:04:39;;;;;;;7.32;5.82;;;5.90;99.90;;;;;;5066191;28;20263;-79
2022/02/02 01:07:13;;;;;;;8.18;5.53;;;5.90;99.90;;;;;;5068936;28;20262;-80
2022/02/02 01:09:44;;;;;;;7.75;5.90;;;5.80;99.90;;;;;;5070530;28;20222;-78
2022/02/02 01:18:14;;;;;;;7.57;5.90;;;5.70;99.90;;;;;;5059432;28;20191;-79
2022/02/02 01:20:54;;;;;;;6.65;5.45;;;5.70;99.90;;;;;;5056646;28;20230;-80
2022/02/02 01:29:03;;;;;;;9.88;5.40;;;5.70;99.90;;;;;;5049573;28;20228;-77
2022/02/02 01:31:31;;;;;;;9.85;6.07;;;5.80;99.90;;;;;;5055589;28;20234;-80
2022/02/02 01:33:58;;;;;;;7.82;6.25;;;5.80;99.90;;;;;;5055377;28;20245;-79
2022/02/02 01:36:25;;;;;;;12.00;6.68;;;5.80;99.90;;;;;;5057620;28;20241;-80
2022/02/02 01:38:54;;;;;;;11.02;6.22;;;5.80;99.90;;;;;;5057213;28;20290;-80
2022/02/02 01:41:29;;;;;;;11.82;6.88;;;5.90;99.90;;;;;;5055573;28;20226;-80
2022/02/02 01:44:03;;;;;;;8.10;6.53;;;5.90;99.90;;;;;;5056268;28;20234;-80
2022/02/02 01:46:34;;;;;;;10.55;6.97;;;5.90;99.90;;;;;;5056561;28;20714;-79
2022/02/02 01:49:56;;;;;;;9.90;7.40;;;5.90;99.90;;;;;;5058445;28;20191;-80
2022/02/02 01:52:01;;;;;;;9.90;6.70;;;5.90;99.90;;;;;;5073767;28;20198;-81
2022/02/02 01:54:41;;;;;;;12.15;6.97;;;5.90;99.90;;;;;;5078823;28;20194;-80
2022/02/02 01:57:22;;;;;;;10.90;7.63;;;5.90;99.90;;;;;;5079212;28;20206;-80
2022/02/02 01:59:49;;;;;;;14.25;7.15;;;5.80;99.90;;;;;;5076660;28;20213;-81
2022/02/02 02:02:18;;;;;;;8.32;6.50;;;5.90;99.90;;;;;;5077241;28;20282;-81
2022/02/02 02:04:45;;;;;;;11.60;8.30;;;5.90;99.90;;;;;;5077830;28;20198;-81
2022/02/02 02:07:12;;;;;;;12.23;7.78;;;5.90;99.90;;;;;;5059367;28;20206;-78
2022/02/02 02:09:39;;;;;;;10.38;7.25;;;5.90;99.90;;;;;;5077857;28;20190;-79
2022/02/02 02:12:09;;;;;;;11.60;7.03;;;6.00;99.90;;;;;;5077878;28;20210;-79
2022/02/02 02:17:11;;;;;;;19.67;8.90;;;6.10;99.90;;;;;;5061635;28;20183;-79
2022/02/02 02:19:43;;;;;;;12.65;7.72;;;6.20;99.90;;;;;;5057536;28;20215;-79
2022/02/02 02:22:15;;;;;;;12.35;7.38;;;6.20;99.90;;;;;;5060938;28;20254;-79
2022/02/02 02:24:44;;;;;;;9.88;7.05;;;6.20;99.90;;;;;;5060789;28;20725;-79
2022/02/02 02:27:14;;;;;;;10.48;6.85;;;6.30;99.90;;;;;;5062136;28;20206;-79
2022/02/02 02:30:01;;;;;;;15.18;7.95;;;6.30;99.90;;;;;;5059502;28;20210;-80
2022/02/02 02:35:41;;;;;;;9.70;6.35;;;6.30;99.90;;;;;;5029976;28;20198;-81
2022/02/02 02:57:27;;;;;;;12.10;6.15;;;6.10;99.90;;;;;;5060731;28;20263;-80
2022/02/02 03:00:20;;;;;;;10.85;5.68;;;6.10;99.90;;;;;;5064325;28;20206;-79
2022/02/02 03:30:40;;;;;;;6.55;5.10;;;6.60;99.90;;;;;;5055649;28;20189;-79
2022/02/02 03:50:05;;;;;;;7.85;5.13;;;6.80;99.90;;;;;;5070128;28;20237;-78
2022/02/02 03:53:12;;;;;;;9.05;4.60;;;6.80;99.90;;;;;;5057805;28;20282;-79
2022/02/02 03:55:41;;;;;;;7.43;4.53;;;6.90;99.90;;;;;;5057131;28;20287;-79
2022/02/02 03:58:19;;;;;;;12.32;5.47;;;6.90;99.90;;;;;;5057610;28;20206;-79
2022/02/02 04:01:09;;;;;;;10.27;5.45;;;6.90;99.90;;;;;;5068298;28;20210;-80
2022/02/02 04:03:53;;;;;;;11.55;5.70;;;6.90;99.90;;;;;;5076419;28;20218;-80
2022/02/02 04:06:23;;;;;;;11.93;6.05;;;7.00;99.90;;;;;;5068029;28;20202;-79
2022/02/02 04:08:50;;;;;;;13.80;5.38;;;6.90;99.90;;;;;;5053508;28;20305;-79
2022/02/02 04:11:27;;;;;;;7.97;5.38;;;7.00;99.90;;;;;;5054099;28;20242;-79
2022/02/02 04:52:55;;;;;;;10.05;4.38;;;7.10;99.90;;;;;;5076360;28;20209;-81
2022/02/02 04:55:30;;;;;;;5.80;4.18;;;7.10;99.90;;;;;;5075268;28;20233;-80
2022/02/02 04:58:12;;;;;;;5.80;3.60;;;7.10;99.90;;;;;;5072863;28;20234;-80
2022/02/02 05:06:38;;;;;;;7.47;4.25;;;7.20;99.00;;;;;;5034221;28;20333;-81
2022/02/02 05:09:19;;;;;;;8.80;4.35;;;7.20;98.10;;;;;;5061261;28;20202;-81
2022/02/02 05:15:37;;;;;;;10.75;3.90;;;7.20;97.10;;;;;;5042970;28;20209;-81
2022/02/02 05:17:56;;;;;;;13.27;4.35;;;7.30;96.10;;;;;;5055325;28;20214;-81
2022/02/02 05:51:06;;;;;;;9.50;3.90;;;7.50;96.20;;;;;;5002209;28;20224;-79
2022/02/02 05:53:34;;;;;;;8.70;3.80;;;7.50;96.10;;;;;;5008657;28;20217;-80
2022/02/02 05:56:03;;;;;;;11.82;3.90;;;7.50;96.10;;;;;;5014891;28;20276;-79
2022/02/02 05:58:39;;;;;;;10.13;4.40;;;7.50;95.70;;;;;;5011716;28;20271;-80
2022/02/02 06:01:13;;;;;;;11.88;3.38;;;7.60;95.00;;;;;;5003198;28;20240;-79
2022/02/02 06:03:51;;;;;;;7.50;3.78;;;7.60;94.30;;;;;;5001107;28;20210;-79
2022/02/02 06:06:19;;;;;;;7.90;3.70;;;7.60;93.90;;;;;;4982010;28;20300;-79
2022/02/02 06:08:51;;;;;;;14.88;4.00;;;7.60;93.80;;;;;;4980476;28;20216;-78
2022/02/02 06:11:23;;;;;;;11.10;4.20;;;7.60;93.50;;;;;;4980223;28;20220;-79
2022/02/02 06:13:55;;;;;;;8.40;4.05;;;7.60;93.20;;;;;;4980761;28;20235;-79
2022/02/02 06:16:25;;;;;;;14.27;4.65;;;7.60;93.20;;;;;;4980460;28;20549;-78
2022/02/02 06:18:55;;;;;;;9.27;4.07;;;7.60;93.30;;;;;;4979803;28;20209;-79
2022/02/02 06:21:27;;;;;;;11.30;3.67;;;7.70;92.90;;;;;;4980718;28;20225;-78
2022/02/02 06:24:01;;;;;;;7.63;4.43;;;7.70;92.70;;;;;;4980363;28;20676;-79
2022/02/02 06:26:29;;;;;;;13.70;4.50;;;7.70;92.90;;;;;;4979978;28;20678;-78
2022/02/02 06:29:03;;;;;;;12.20;4.28;;;7.70;92.30;;;;;;4980325;28;20284;-78
2022/02/02 06:31:35;;;;;;;11.55;4.40;;;7.70;92.10;;;;;;4980383;28;20306;-79
2022/02/02 06:34:07;;;;;;;8.00;3.50;;;7.70;91.20;;;;;;4981929;28;20233;-79
2022/02/02 06:36:37;;;;;;;13.27;4.55;;;7.70;90.90;;;;;;4980436;28;20216;-79
2022/02/02 06:39:08;;;;;;;11.30;4.10;;;7.70;90.50;;;;;;4980417;28;20205;-79
2022/02/02 06:41:39;;;;;;;8.63;3.92;;;7.70;89.50;;;;;;4980770;28;20271;-78
2022/02/02 06:44:07;;;;;;;11.30;4.10;;;7.70;88.10;;;;;;4979918;28;20228;-79
2022/02/02 06:46:40;;;;;;;13.13;4.32;;;7.70;87.80;;;;;;4979270;28;20557;-79
2022/02/02 06:49:11;;;;;;;12.18;4.22;;;7.80;87.90;;;;;;4979909;28;20232;-79
2022/02/02 06:51:47;;;;;;;10.48;4.00;;;7.80;87.90;;;;;;4980880;28;20229;-79
2022/02/02 06:54:21;;;;;;;11.32;5.15;;;7.80;87.90;;;;;;4991195;28;20227;-79
2022/02/02 06:56:56;;;;;;;10.80;3.83;;;7.70;87.80;;;;;;4986308;28;20197;-80
2022/02/02 06:59:40;;;;;;;7.55;4.22;;;7.70;87.80;;;;;;4981302;28;20592;-79
2022/02/02 07:02:29;;;;;;;10.18;4.35;;;7.70;87.90;;;;;;4989358;28;20225;-79
2022/02/02 07:08:24;;;;;;;9.05;4.47;;;7.70;89.40;;;;;;4993116;28;20264;-79
2022/02/02 07:37:47;;;;;;;8.43;4.07;;;7.90;91.10;;;;;;4803828;30;20220;-79
2022/02/02 07:43:05;;;;;;;9.13;4.10;;;7.90;90.10;;;;;;4803784;30;20244;-79
2022/02/02 07:45:34;;;;;;;6.72;3.80;;;8.00;89.00;;;;;;4807281;29;20216;-79
2022/02/02 07:48:26;;;;;;;13.25;4.93;;;8.00;89.60;;;;;;4811093;29;20250;-78
2022/02/02 07:53:58;;;;;;;8.55;3.90;;;8.00;88.10;;;;;;4862169;29;20200;-78
2022/02/02 07:56:47;;;;;;;24.35;5.00;;;8.00;88.20;;;;;;4859978;29;20346;-78
2022/02/02 08:03:36;;;;;;;11.27;5.53;;;8.10;89.00;;;;;;4823297;29;20245;-78
2022/02/02 08:22:28;;;;;;;8.05;3.80;;;8.30;86.40;;;;;;4838613;29;20246;-79
2022/02/02 08:25:28;;;;;;;9.40;3.90;;;8.40;85.30;;;;;;4839383;29;20298;-79
2022/02/02 08:28:09;;;;;;;10.30;3.70;;;8.40;85.10;;;;;;4839713;29;20218;-78
2022/02/02 08:30:39;;;;;;;11.13;3.80;;;8.40;84.40;;;;;;4831172;29;20239;-78
2022/02/02 08:33:19;;;;;;;11.55;4.22;;;8.40;84.30;;;;;;4832436;29;20210;-79
2022/02/02 08:39:28;;;;;;;7.97;3.95;;;8.40;83.70;;;;;;4851880;29;20276;-79
2022/02/02 08:42:43;;;;;;;10.23;4.13;;;8.40;84.00;;;;;;4868870;29;20244;-79
2022/02/02 08:51:56;;;;;;;14.73;5.00;;;8.40;83.80;;;;;;4802367;29;20234;-79
2022/02/02 08:54:44;;;;;;;9.82;4.45;;;8.50;83.80;;;;;;4837950;29;20226;-79
2022/02/02 08:57:40;;;;;;;19.40;4.57;;;8.60;82.60;;;;;;4865071;29;20213;-79
2022/02/02 09:20:50;;;;;;;11.00;4.03;;;8.70;80.90;;;;;;4794358;29;20313;-79
2022/02/02 09:34:40;;;;;;;15.38;4.43;;;9.00;80.70;;;;;;4828222;29;20287;-79
2022/02/02 09:38:04;;;;;;;10.77;3.92;;;9.10;79.70;;;;;;4831352;29;20240;-79
2022/02/02 09:44:02;;;;;;;9.43;3.95;;;9.30;77.20;;;;;;4860046;29;20241;-79
2022/02/02 09:46:45;;;;;;;10.55;4.32;;;9.40;76.70;;;;;;4876757;29;20233;-79
2022/02/02 10:08:36;;;;;;;10.73;4.30;;;9.70;70.70;;;;;;5093154;23;20241;-78
2022/02/02 10:11:48;;;;;;;9.88;3.92;;;9.80;70.30;;;;;;4994991;28;20253;-78
2022/02/02 10:14:36;;;;;;;12.52;4.15;;;9.90;70.40;;;;;;4994602;28;20618;-79
2022/02/02 10:17:11;;;;;;;12.35;4.70;;;10.00;68.70;;;;;;4994012;28;20213;-79
2022/02/02 10:19:38;;;;;;;9.57;4.63;;;10.00;67.60;;;;;;4998473;23;20302;-78
2022/02/02 10:22:28;;;;;;;14.82;4.35;;;10.20;67.70;;;;;;4980977;28;20229;-78
2022/02/02 10:25:00;;;;;;;12.10;3.92;;;10.20;65.30;;;;;;4984103;28;20221;-78
2022/02/02 10:27:33;;;;;;;13.77;4.30;;;10.20;64.80;;;;;;4984800;28;20209;-77
2022/02/02 10:30:09;;;;;;;10.88;4.05;;;10.20;63.40;;;;;;4986395;28;20263;-79
2022/02/02 10:32:37;;;;;;;7.85;4.13;;;10.20;62.90;;;;;;4991768;28;20213;-79
2022/02/02 10:35:07;;;;;;;9.05;3.55;;;10.30;62.20;;;;;;4986932;28;20209;-78
2022/02/02 10:37:36;;;;;;;11.85;3.90;;;10.30;63.20;;;;;;4985190;28;20217;-78
2022/02/02 10:40:06;;;;;;;9.55;3.67;;;10.40;61.50;;;;;;4988726;28;20232;-78
2022/02/02 10:42:35;;;;;;;11.95;4.07;;;10.50;61.60;;;;;;4993605;28;20261;-78
2022/02/02 10:45:17;;;;;;;8.55;3.50;;;10.60;59.70;;;;;;4991505;28;20216;-78
2022/02/02 10:47:52;;;;;;;13.10;4.32;;;10.60;59.20;;;;;;5034466;23;20213;-79
2022/02/02 10:50:26;;;;;;;10.73;4.00;;;10.60;59.20;;;;;;5064218;23;20357;-80
2022/02/02 10:53:15;;;;;;;11.23;4.20;;;10.50;59.10;;;;;;4996479;28;20192;-79
2022/02/02 10:59:11;;;;;;;10.63;4.20;;;10.40;59.10;;;;;;5807927;23;20320;-78
2022/02/02 11:01:46;;;;;;;12.30;4.10;;;10.40;59.10;;;;;;4997571;28;20197;-79
2022/02/02 11:06:59;;;;;;;9.50;3.75;;;10.20;58.90;;;;;;4995404;28;20203;-78
2022/02/02 11:09:27;;;;;;;16.05;7.43;;;10.20;58.90;;;;;;4996251;28;20229;-77
2022/02/02 11:11:58;;;;;;;10.05;3.92;;;10.10;58.80;;;;;;5003288;23;20252;-79
2022/02/02 11:14:45;;;;;;;12.07;4.22;;;10.20;58.90;;;;;;4983505;28;20213;-81
2022/02/02 11:17:23;;;;;;;14.52;3.88;;;10.30;58.40;;;;;;4983467;28;20572;-80
2022/02/02 11:19:53;;;;;;;16.77;4.25;;;10.30;59.00;;;;;;4983453;28;20275;-81
2022/02/02 11:22:30;;;;;;;8.07;3.10;;;10.40;58.20;;;;;;4981018;28;20300;-79
2022/02/02 11:24:58;;;;;;;15.73;5.60;;;10.50;56.40;;;;;;4985273;28;20268;-80
2022/02/02 11:27:38;;;;;;;11.25;3.83;;;10.50;56.10;;;;;;4985286;28;20236;-79
2022/02/02 11:30:08;;;;;;;13.02;4.38;;;10.50;55.40;;;;;;4982734;28;20243;-80
2022/02/02 11:32:42;;;;;;;15.57;4.25;;;10.70;55.70;;;;;;4982178;28;20233;-80
2022/02/02 11:35:29;;;;;;;10.82;3.22;;;10.80;54.60;;;;;;4986971;28;20252;-80
2022/02/02 11:37:57;;;;;;;10.10;3.72;;;10.90;54.30;;;;;;4989347;28;20209;-81
2022/02/02 11:40:24;;;;;;;7.82;3.47;;;11.00;54.60;;;;;;4985436;28;20638;-81
2022/02/02 11:42:57;;;;;;;11.88;3.70;;;11.00;54.90;;;;;;4989752;28;20229;-80
2022/02/02 11:45:36;;;;;;;10.15;3.40;;;11.10;54.70;;;;;;4982825;28;20395;-81
2022/02/02 11:48:08;;;;;;;11.38;3.47;;;11.10;54.40;;;;;;4983594;28;20227;-80
2022/02/02 11:50:51;;;;;;;10.25;3.78;;;11.10;54.40;;;;;;4985416;28;20213;-80
2022/02/02 11:53:55;;;;;;;14.05;3.65;;;11.20;54.40;;;;;;4988698;28;20208;-78
2022/02/02 11:56:27;;;;;;;8.43;3.33;;;11.30;53.20;;;;;;4982693;28;20224;-80
2022/02/02 11:58:56;;;;;;;12.05;3.80;;;11.40;53.20;;;;;;4982445;28;20275;-81
2022/02/02 12:01:38;;;;;;;9.68;3.30;;;11.50;51.80;;;;;;4983521;28;20237;-79
2022/02/02 12:04:24;;;;;;;10.70;3.58;;;11.50;50.80;;;;;;4986208;28;20249;-80
2022/02/02 12:07:03;;;;;;;9.05;4.15;;;11.40;51.10;;;;;;4990239;28;20216;-83
2022/02/02 12:09:52;;;;;;;14.15;4.43;;;11.30;52.10;;;;;;4996212;28;20193;-79
2022/02/02 12:50:00;;;;;;;11.70;3.42;;;11.60;52.40;;;;;;5093859;28;20255;-79
2022/02/02 13:00:50;;;;;;;7.43;3.20;;;10.50;57.70;;;;;;5375162;22;20235;-78
2022/02/02 13:03:19;;;;;;;12.35;4.00;;;10.20;58.90;;;;;;5132393;28;20216;-78
2022/02/02 13:05:53;;;;;;;11.98;4.32;;;9.90;62.10;;;;;;5133279;27;20216;-79
2022/02/02 13:11:03;;;;;;;15.48;4.63;;;9.80;62.50;;;;;;5131952;28;20234;-78
2022/02/02 13:13:31;;;;;;;8.45;3.78;;;9.90;63.20;;;;;;5159437;22;20229;-79
2022/02/02 13:16:14;;;;;;;15.95;4.15;;;9.90;63.20;;;;;;5098524;28;20205;-79
2022/02/02 13:18:46;;;;;;;9.23;3.30;;;10.10;60.80;;;;;;5113963;28;20209;-79
2022/02/02 13:21:20;;;;;;;12.82;4.55;;;10.30;59.00;;;;;;5113881;28;20197;-79
2022/02/02 13:23:56;;;;;;;14.60;4.13;;;10.30;58.90;;;;;;5111945;28;20233;-79
2022/02/02 13:26:31;;;;;;;10.48;3.60;;;10.30;58.30;;;;;;5111151;28;20192;-78
2022/02/02 13:29:09;;;;;;;13.98;4.00;;;10.30;57.30;;;;;;5109632;28;20201;-80
2022/02/02 13:31:49;;;;;;;8.52;3.65;;;10.40;57.60;;;;;;5110164;28;20209;-79
2022/02/02 13:34:25;;;;;;;6.28;2.95;;;10.60;57.20;;;;;;5100469;28;20251;-79
2022/02/02 13:37:18;;;;;;;10.82;3.35;;;10.80;55.90;;;;;;5091798;28;20286;-79
2022/02/02 13:45:52;;;;;;;6.45;2.97;;;10.70;55.00;;;;;;5063256;28;20252;-79
2022/02/02 13:54:19;;;;;;;11.63;3.50;;;10.70;55.70;;;;;;5094289;28;20217;-79
2022/02/02 14:05:23;;;;;;;4.55;2.03;;;10.60;56.30;;;;;;5086090;28;20271;-80
2022/02/02 14:08:12;;;;;;;5.10;1.98;;;10.50;57.10;;;;;;5081574;28;20699;-79
2022/02/02 14:10:59;;;;;;;3.60;1.95;;;10.30;59.00;;;;;;5060346;28;20233;-79
2022/02/02 14:32:45;;;;;;;5.20;3.10;;;9.90;70.00;;;;;;5070495;28;20210;-79
2022/02/02 14:35:15;;;;;;;5.03;2.72;;;9.90;71.50;;;;;;5062202;28;20256;-78
2022/02/02 14:37:54;;;;;;;6.10;3.30;;;9.90;72.70;;;;;;5063549;28;20206;-79
2022/02/02 14:40:29;;;;;;;5.10;2.80;;;9.90;73.90;;;;;;5063716;28;20214;-80
2022/02/02 14:42:59;;;;;;;9.15;3.85;;;9.80;76.30;;;;;;5068040;28;20297;-80
2022/02/02 14:45:30;;;;;;;6.95;4.22;;;9.80;77.10;;;;;;5061168;28;20206;-80
2022/02/02 14:48:05;;;;;;;10.32;4.15;;;9.80;78.40;;;;;;5062312;28;20222;-79
2022/02/02 14:50:45;;;;;;;9.07;3.83;;;9.80;79.10;;;;;;5062148;28;20221;-79
2022/02/02 14:53:21;;;;;;;7.18;3.50;;;9.80;80.30;;;;;;5062924;28;20230;-80
2022/02/02 15:29:13;;;;;;;5.95;3.30;;;9.90;77.20;;;;;;5075920;28;20177;-80
2022/02/02 15:31:42;;;;;;;3.90;3.45;;;9.90;77.20;;;;;;5077785;28;20218;-79
2022/02/02 15:34:14;;;;;;;4.72;3.20;;;9.90;77.20;;;;;;5071681;28;20317;-81
2022/02/02 15:39:25;;;;;;;9.00;3.65;;;9.90;77.20;;;;;;5061066;28;20251;-80
2022/02/02 15:42:20;;;;;;;7.35;3.83;;;9.90;77.90;;;;;;5061663;28;20674;-80
2022/02/02 15:54:42;;;;;;;4.55;3.60;;;9.90;78.50;;;;;;5060993;28;20216;-79
2022/02/02 15:59:47;;;;;;;4.80;3.25;;;9.60;81.20;;;;;;5077382;28;20183;-80
2022/02/02 16:02:15;;;;;;;7.10;3.90;;;9.70;81.90;;;;;;5076622;28;20225;-79
2022/02/02 16:12:37;;;;;;;4.03;3.63;;;9.40;84.20;;;;;;5943806;22;20233;-79
2022/02/02 16:15:17;;;;;;;4.53;3.45;;;9.40;84.60;;;;;;5092073;28;20225;-80
2022/02/02 16:31:51;;;;;;;3.55;3.22;;;9.20;87.20;;;;;;5091773;28;20223;-79
2022/02/02 16:37:24;;;;;;;4.57;3.53;;;9.10;86.60;;;;;;5033643;28;20199;-82
2022/02/02 16:39:54;;;;;;;4.50;3.65;;;9.00;87.80;;;;;;5033071;28;20211;-81
2022/02/02 16:45:06;;;;;;;6.53;5.10;;;9.00;88.90;;;;;;5030903;28;20604;-80
2022/02/02 16:47:35;;;;;;;6.65;4.50;;;9.00;88.90;;;;;;5030856;28;20204;-81
2022/02/02 16:50:02;;;;;;;5.38;3.92;;;9.00;89.50;;;;;;5030834;28;20195;-81
2022/02/02 16:52:31;;;;;;;4.05;3.40;;;9.00;89.60;;;;;;5032560;28;20214;-79
2022/02/02 16:55:02;;;;;;;4.03;3.55;;;8.90;90.40;;;;;;5033560;28;20223;-81
2022/02/02 16:57:41;;;;;;;6.03;3.55;;;8.90;90.80;;;;;;5034739;28;20204;-79
2022/02/02 17:30:38;;;;;;;4.80;4.05;;;8.90;94.90;;;;;;5096867;28;20230;-79
2022/02/02 17:33:09;;;;;;;7.07;4.05;;;8.90;94.90;;;;;;5097525;28;20222;-80
2022/02/02 17:35:50;;;;;;;4.63;3.92;;;8.90;94.50;;;;;;5098033;28;20274;-82
2022/02/02 17:38:22;;;;;;;4.57;3.35;;;8.90;94.50;;;;;;5097799;28;20321;-80
2022/02/02 17:41:13;;;;;;;9.55;4.15;;;8.90;94.20;;;;;;5097368;28;20239;-80
2022/02/02 18:20:03;;;;;;;8.05;5.70;;;8.70;99.90;;;;;;5097033;28;20182;-80
2022/02/02 18:22:36;;;;;;;9.68;6.22;;;8.80;99.90;;;;;;5098022;28;20208;-80
2022/02/02 18:25:11;;;;;;;7.05;5.68;;;8.80;99.90;;;;;;5098311;28;20280;-80
2022/02/02 18:27:46;;;;;;;10.90;6.60;;;8.80;99.90;;;;;;5098135;28;20209;-81
2022/02/02 18:30:33;;;;;;;9.18;5.80;;;8.80;99.90;;;;;;5096666;28;20190;-80
2022/02/02 18:33:29;;;;;;;8.38;6.28;;;8.90;99.90;;;;;;5096811;28;20237;-80
2022/02/02 18:36:03;;;;;;;7.72;6.18;;;8.90;99.90;;;;;;5097841;28;20231;-80
2022/02/02 18:49:36;;;;;;;6.15;5.28;;;8.90;99.90;;;;;;5097560;28;20198;-79
2022/02/02 18:55:08;;;;;;;10.77;6.95;;;8.90;99.90;;;;;;5098473;28;20201;-80
2022/02/02 18:57:51;;;;;;;6.35;5.75;;;8.90;99.90;;;;;;5077596;28;20229;-79
2022/02/02 19:00:32;;;;;;;8.00;6.30;;;8.90;99.90;;;;;;5095874;28;20201;-78
2022/02/02 19:54:00;;;;;;;12.10;8.20;;;8.90;99.90;;;;;;5088506;28;20209;-79
2022/02/02 19:56:19;;;;;;;9.45;8.43;;;8.90;99.90;;;;;;5090852;28;20233;-78
2022/02/02 20:01:53;;;;;;;11.15;8.70;;;8.90;99.90;;;;;;5001027;28;20208;-78
2022/02/02 20:07:28;;;;;;;12.30;9.88;;;8.90;99.90;;;;;;5046129;28;20225;-78
2022/02/02 20:10:25;;;;;;;11.95;10.05;;;8.90;99.90;;;;;;5075838;28;20205;-78
2022/02/02 20:12:53;;;;;;;13.98;10.35;;;8.80;99.90;;;;;;5084037;28;20199;-79
2022/02/02 20:15:20;;;;;;;14.10;10.38;;;8.90;99.90;;;;;;5079228;28;20237;-79
2022/02/02 20:17:49;;;;;;;12.27;10.07;;;8.90;99.90;;;;;;5059650;28;20236;-79
2022/02/02 20:20:19;;;;;;;12.43;10.02;;;8.90;99.90;;;;;;5057288;28;20203;-78
2022/02/02 20:22:47;;;;;;;12.52;10.80;;;8.90;99.90;;;;;;5059172;28;20311;-78
2022/02/02 20:25:16;;;;;;;14.93;10.30;;;8.90;99.90;;;;;;5063119;28;20227;-78
2022/02/02 20:27:51;;;;;;;14.55;11.07;;;8.90;99.90;;;;;;5064876;28;20239;-79
2022/02/02 20:30:21;;;;;;;14.93;10.30;;;8.90;99.90;;;;;;5044185;28;20214;-77
2022/02/02 20:32:48;;;;;;;12.73;10.48;;;8.90;99.90;;;;;;5044283;28;20222;-79
2022/02/02 20:35:15;;;;;;;14.00;10.30;;;8.90;99.90;;;;;;5062073;28;20207;-77
2022/02/02 20:37:42;;;;;;;12.90;9.82;;;8.90;99.90;;;;;;5066599;28;20228;-78
2022/02/02 20:40:10;;;;;;;15.45;10.93;;;8.90;99.90;;;;;;5080902;28;20213;-79
2022/02/02 20:42:43;;;;;;;13.55;10.65;;;8.90;99.90;;;;;;5074219;28;20212;-78
2022/02/02 21:04:44;;;;;;;11.82;9.95;;;8.90;99.90;;;;;;5027715;28;20254;-78
2022/02/02 21:07:27;;;;;;;13.13;9.40;;;8.90;99.90;;;;;;5075532;28;20685;-78
2022/02/02 21:10:01;;;;;;;13.38;9.80;;;9.00;99.90;;;;;;5072460;28;20233;-77
2022/02/02 21:15:15;;;;;;;11.40;9.75;;;9.00;99.90;;;;;;5062056;28;20252;-78
2022/02/02 21:17:43;;;;;;;12.80;9.40;;;9.00;99.90;;;;;;5078658;28;20238;-77
2022/02/02 21:20:20;;;;;;;13.27;9.75;;;9.10;99.90;;;;;;5060006;28;20215;-78
2022/02/02 21:22:54;;;;;;;12.02;8.75;;;9.00;99.90;;;;;;5038045;28;20211;-79
2022/02/02 21:28:11;;;;;;;11.88;8.77;;;9.00;99.90;;;;;;5051386;28;20214;-79
2022/02/02 21:30:42;;;;;;;10.77;8.73;;;9.00;99.90;;;;;;5083830;28;20214;-78
2022/02/02 21:33:14;;;;;;;10.18;8.70;;;9.00;99.90;;;;;;5059524;28;20213;-77
2022/02/02 21:35:43;;;;;;;10.93;8.35;;;9.00;99.90;;;;;;5062291;28;20211;-77
2022/02/02 21:38:18;;;;;;;10.73;8.40;;;9.00;99.90;;;;;;5072483;28;20215;-80
2022/02/02 21:40:52;;;;;;;11.55;9.15;;;9.10;99.90;;;;;;5080234;28;20258;-80
2022/02/02 21:43:19;;;;;;;11.45;8.85;;;9.00;99.90;;;;;;5089025;28;20216;-82
2022/02/02 21:45:46;;;;;;;10.88;8.77;;;9.00;99.90;;;;;;5076454;28;20298;-80
2022/02/02 21:48:13;;;;;;;10.60;8.40;;;9.00;99.90;;;;;;5083725;28;20218;-82
2022/02/02 21:50:48;;;;;;;11.95;9.35;;;9.00;99.90;;;;;;5048041;28;20733;-78
2022/02/02 21:53:16;;;;;;;11.95;9.07;;;9.00;99.90;;;;;;5043371;28;20207;-78
2022/02/02 21:55:43;;;;;;;11.88;9.20;;;8.90;99.90;;;;;;5062105;28;20290;-78
2022/02/02 21:58:11;;;;;;;13.80;9.80;;;9.00;99.90;;;;;;5064136;28;20227;-77
2022/02/02 22:00:38;;;;;;;11.65;9.38;;;8.90;99.90;;;;;;5056271;28;20207;-77
2022/02/02 22:03:05;;;;;;;16.08;11.15;;;8.90;99.90;;;;;;5074700;28;20202;-78
2022/02/02 22:05:32;;;;;;;15.63;10.15;;;8.80;99.90;;;;;;5063639;28;20651;-79
2022/02/02 22:07:59;;;;;;;13.15;10.00;;;8.80;99.90;;;;;;5074752;28;20224;-79
2022/02/02 22:10:27;;;;;;;13.70;10.75;;;8.80;99.90;;;;;;5086571;28;20232;-78
2022/02/02 22:12:54;;;;;;;14.02;9.80;;;8.80;99.90;;;;;;5088126;28;20255;-77
2022/02/02 22:15:26;;;;;;;12.98;10.70;;;8.80;99.90;;;;;;5073165;28;20207;-79
2022/02/02 22:17:52;;;;;;;12.57;9.75;;;8.80;99.90;;;;;;5071762;28;20240;-78
2022/02/02 22:20:19;;;;;;;12.25;10.43;;;8.80;99.90;;;;;;5069266;28;20689;-79
2022/02/02 22:22:47;;;;;;;12.45;10.18;;;8.80;99.90;;;;;;5061818;28;20214;-79
2022/02/02 22:25:15;;;;;;;15.55;9.60;;;8.70;99.90;;;;;;5072884;28;20219;-80
2022/02/02 22:27:43;;;;;;;14.30;10.88;;;8.80;99.90;;;;;;5080494;28;20233;-78
2022/02/02 22:30:11;;;;;;;16.15;11.55;;;8.70;99.90;;;;;;5066715;28;20310;-78
2022/02/02 22:32:38;;;;;;;12.48;10.20;;;8.70;99.90;;;;;;5064347;28;20543;-78
2022/02/02 22:35:06;;;;;;;14.48;10.90;;;8.80;99.90;;;;;;5063258;28;20683;-77
2022/02/02 22:37:33;;;;;;;11.73;10.20;;;8.80;99.90;;;;;;5064185;28;20219;-79
2022/02/02 22:40:00;;;;;;;13.25;10.60;;;8.80;99.90;;;;;;5058870;28;20231;-77
2022/02/02 22:42:28;;;;;;;17.52;10.13;;;8.80;99.90;;;;;;5067676;28;20198;-78
2022/02/02 22:45:00;;;;;;;13.18;9.55;;;8.80;99.90;;;;;;5079883;28;20229;-79
2022/02/02 22:47:29;;;;;;;11.88;9.98;;;8.80;99.90;;;;;;5067780;28;20239;-79
2022/02/02 22:49:57;;;;;;;12.50;9.85;;;8.80;99.90;;;;;;5074813;28;20214;-78
2022/02/02 22:52:25;;;;;;;12.07;9.95;;;8.90;99.90;;;;;;5077856;28;20202;-77
2022/02/02 22:54:52;;;;;;;12.13;8.70;;;8.90;99.90;;;;;;5068317;28;20214;-77
2022/02/02 22:57:18;;;;;;;11.48;9.27;;;8.90;99.90;;;;;;5063018;28;20234;-79
2022/02/02 22:59:48;;;;;;;11.55;9.07;;;8.90;99.90;;;;;;5060881;28;20268;-77
2022/02/02 23:02:35;;;;;;;10.43;8.43;;;8.80;99.90;;;;;;5068518;28;20215;-77
2022/02/02 23:05:01;;;;;;;11.88;8.05;;;8.90;99.90;;;;;;5060222;28;20252;-76
2022/02/02 23:07:28;;;;;;;12.27;9.65;;;8.80;99.90;;;;;;5070897;28;20277;-78
2022/02/02 23:09:57;;;;;;;11.10;8.35;;;8.70;99.90;;;;;;5048682;28;20222;-77
2022/02/02 23:12:26;;;;;;;10.95;8.43;;;8.70;99.90;;;;;;5059239;28;20237;-76
2022/02/02 23:14:53;;;;;;;11.07;8.05;;;8.70;99.90;;;;;;5055713;28;20576;-77
2022/02/02 23:17:22;;;;;;;10.32;8.65;;;8.80;99.90;;;;;;5056121;28;20745;-78
2022/02/02 23:19:51;;;;;;;9.65;7.85;;;8.80;99.90;;;;;;5056946;28;20506;-78
2022/02/02 23:22:22;;;;;;;10.95;8.43;;;8.80;99.90;;;;;;5051236;28;20211;-79
2022/02/02 23:24:53;;;;;;;11.60;8.20;;;8.80;99.90;;;;;;5055105;28;20223;-77
2022/02/02 23:27:21;;;;;;;9.75;8.35;;;8.80;99.90;;;;;;5057749;28;20312;-77
2022/02/02 23:29:52;;;;;;;10.45;8.52;;;8.70;99.90;;;;;;5056296;28;20777;-78
2022/02/02 23:32:23;;;;;;;13.80;9.00;;;8.70;99.90;;;;;;5057403;28;20282;-77
2022/02/02 23:34:49;;;;;;;9.55;7.45;;;8.70;99.90;;;;;;5058735;28;20211;-78
2022/02/02 23:37:17;;;;;;;15.63;8.73;;;8.70;99.90;;;;;;5057840;28;20227;-77
2022/02/02 23:39:44;;;;;;;9.90;7.75;;;8.70;99.90;;;;;;5054370;28;20586;-78